createdAt,value
2017-10-21T00:00:09.362Z,13.00
2017-10-21T00:02:37.700Z,13.00
2017-10-21T00:05:05.306Z,13.00
2017-10-21T00:07:33.656Z,13.10
2017-10-21T00:10:01.404Z,13.10
2017-10-21T00:12:28.975Z,13.20
2017-10-21T00:14:56.589Z,13.20
2017-10-21T00:17:24.941Z,13.20
2017-10-21T00:19:53.337Z,13.20
2017-10-21T00:22:21.875Z,13.30
2017-10-21T00:24:49.445Z,13.20
2017-10-21T00:27:17.054Z,13.20
2017-10-21T00:29:44.646Z,13.20
2017-10-21T00:32:12.384Z,13.20
2017-10-21T00:34:40.734Z,13.20
2017-10-21T00:37:08.346Z,13.20
2017-10-21T00:39:36.673Z,13.30
2017-10-21T00:42:04.309Z,13.30
2017-10-21T00:44:32.651Z,13.30
2017-10-21T00:47:00.223Z,13.30
2017-10-21T00:49:27.827Z,13.30
2017-10-21T00:51:56.232Z,13.20
2017-10-21T00:54:23.906Z,13.20
2017-10-21T00:56:51.483Z,13.20
2017-10-21T00:59:19.093Z,13.20
2017-10-21T01:01:47.435Z,13.20
2017-10-21T01:04:15.075Z,13.20
2017-10-21T01:06:42.667Z,13.20
2017-10-21T01:09:10.226Z,13.30
2017-10-21T01:11:37.842Z,13.30
2017-10-21T01:14:05.419Z,13.30
2017-10-21T01:16:33.031Z,13.20
2017-10-21T01:19:00.581Z,13.20
2017-10-21T01:21:28.162Z,13.10
2017-10-21T01:23:55.740Z,13.10
2017-10-21T01:26:24.093Z,13.10
2017-10-21T01:28:51.649Z,13.10
2017-10-21T01:31:19.265Z,13.10
2017-10-21T01:33:47.616Z,13.10
2017-10-21T01:36:15.241Z,13.10
2017-10-21T01:38:42.907Z,13.00
2017-10-21T01:41:10.475Z,13.00
2017-10-21T01:43:38.203Z,13.10
2017-10-21T01:46:06.520Z,13.00
2017-10-21T01:48:34.135Z,13.00
2017-10-21T01:51:02.510Z,13.00
2017-10-21T01:53:30.090Z,13.00
2017-10-21T01:55:58.482Z,13.00
2017-10-21T01:58:26.638Z,13.00
2017-10-21T02:00:54.251Z,13.00
2017-10-21T02:03:21.846Z,13.00
2017-10-21T02:05:49.468Z,13.00
2017-10-21T02:08:17.067Z,13.00
2017-10-21T02:10:44.662Z,13.00
2017-10-21T02:13:12.258Z,12.90
2017-10-21T02:15:39.985Z,12.90
2017-10-21T02:18:07.578Z,12.90
2017-10-21T02:20:35.939Z,12.90
2017-10-21T02:23:04.288Z,12.90
2017-10-21T02:25:31.875Z,12.90
2017-10-21T02:27:59.453Z,12.80
2017-10-21T02:30:27.811Z,12.80
2017-10-21T02:32:56.172Z,12.80
2017-10-21T02:35:23.747Z,12.80
2017-10-21T02:37:51.336Z,12.80
2017-10-21T02:40:20.441Z,12.80
2017-10-21T02:42:48.021Z,12.80
2017-10-21T02:45:16.378Z,12.80
2017-10-21T02:47:43.971Z,12.70
2017-10-21T02:50:12.326Z,12.70
2017-10-21T02:52:39.905Z,12.70
2017-10-21T02:55:08.285Z,12.60
2017-10-21T02:57:36.654Z,12.60
2017-10-21T03:00:04.221Z,12.60
2017-10-21T03:02:32.569Z,12.60
2017-10-21T03:05:00.164Z,12.60
2017-10-21T03:07:27.735Z,12.60
2017-10-21T03:09:56.085Z,12.60
2017-10-21T03:12:23.681Z,12.60
2017-10-21T03:14:51.283Z,12.60
2017-10-21T03:17:18.876Z,12.60
2017-10-21T03:19:46.457Z,12.50
2017-10-21T03:22:14.026Z,12.50
2017-10-21T03:24:41.859Z,12.50
2017-10-21T03:27:09.431Z,12.50
2017-10-21T03:29:37.013Z,12.60
2017-10-21T03:32:04.630Z,12.60
2017-10-21T03:34:32.241Z,12.60
2017-10-21T03:36:59.884Z,12.60
2017-10-21T03:39:27.551Z,12.60
2017-10-21T03:41:55.137Z,12.60
2017-10-21T03:44:23.496Z,12.70
2017-10-21T03:46:51.215Z,12.70
2017-10-21T03:49:19.579Z,12.70
2017-10-21T03:51:47.140Z,12.70
2017-10-21T03:54:14.731Z,12.70
2017-10-21T03:56:43.083Z,12.80
2017-10-21T03:59:10.743Z,12.80
2017-10-21T04:01:39.862Z,12.90
2017-10-21T04:04:07.416Z,12.90
2017-10-21T04:06:35.015Z,12.90
2017-10-21T04:09:04.293Z,13.00
2017-10-21T04:11:33.534Z,13.00
2017-10-21T04:14:01.655Z,13.00
2017-10-21T04:16:31.053Z,13.00
2017-10-21T04:18:58.613Z,12.90
2017-10-21T04:21:26.197Z,12.90
2017-10-21T04:23:53.828Z,13.00
2017-10-21T04:26:21.459Z,13.00
2017-10-21T04:28:49.959Z,13.00
2017-10-21T04:31:17.565Z,13.00
2017-10-21T04:33:45.167Z,13.00
2017-10-21T04:36:13.511Z,13.00
2017-10-21T04:38:41.077Z,13.00
2017-10-21T04:41:08.675Z,13.10
2017-10-21T04:43:37.020Z,13.00
2017-10-21T04:46:04.634Z,13.00
2017-10-21T04:48:32.954Z,13.00
2017-10-21T04:51:00.580Z,13.00
2017-10-21T04:53:28.163Z,12.90
2017-10-21T04:55:55.727Z,12.90
2017-10-21T04:58:23.427Z,12.90
2017-10-21T05:00:51.025Z,12.90
2017-10-21T05:03:19.405Z,12.80
2017-10-21T05:05:47.725Z,12.80
2017-10-21T05:08:15.313Z,12.80
2017-10-21T05:10:42.877Z,12.70
2017-10-21T05:13:10.493Z,12.70
2017-10-21T05:15:38.862Z,12.60
2017-10-21T05:18:07.217Z,12.60
2017-10-21T05:20:34.899Z,12.60
2017-10-21T05:23:03.298Z,12.60
2017-10-21T05:25:31.693Z,12.60
2017-10-21T05:27:59.263Z,12.60
2017-10-21T05:30:26.853Z,12.60
2017-10-21T05:32:54.438Z,12.50
2017-10-21T05:35:22.064Z,12.50
2017-10-21T05:37:49.649Z,12.50
2017-10-21T05:40:17.260Z,12.50
2017-10-21T05:42:44.858Z,12.50
2017-10-21T05:45:12.542Z,12.50
2017-10-21T05:47:40.125Z,12.50
2017-10-21T05:50:07.739Z,12.50
2017-10-21T05:52:35.319Z,12.50
2017-10-21T05:55:02.872Z,12.50
2017-10-21T05:57:30.470Z,12.50
2017-10-21T05:59:58.047Z,12.50
2017-10-21T06:02:25.643Z,12.40
2017-10-21T06:04:53.987Z,12.40
2017-10-21T06:07:21.591Z,12.40
2017-10-21T06:09:49.947Z,12.30
2017-10-21T06:12:17.556Z,12.30
2017-10-21T06:14:45.138Z,12.30
2017-10-21T06:17:12.717Z,12.30
2017-10-21T06:19:40.288Z,12.40
2017-10-21T06:22:07.887Z,12.40
2017-10-21T06:24:36.304Z,12.50
2017-10-21T06:27:03.903Z,12.40
2017-10-21T06:29:31.479Z,12.50
2017-10-21T06:31:59.097Z,12.50
2017-10-21T06:34:26.755Z,12.60
2017-10-21T06:36:54.440Z,12.60
2017-10-21T06:39:22.046Z,12.60
2017-10-21T06:41:49.655Z,12.60
2017-10-21T06:44:17.275Z,12.70
2017-10-21T06:46:44.844Z,12.70
2017-10-21T06:49:12.425Z,12.70
2017-10-21T06:51:40.778Z,12.70
2017-10-21T06:54:08.374Z,12.70
2017-10-21T06:56:36.726Z,12.80
2017-10-21T06:59:04.310Z,12.80
2017-10-21T07:01:32.656Z,12.80
2017-10-21T07:04:00.274Z,12.80
2017-10-21T07:06:28.635Z,12.90
2017-10-21T07:08:57.004Z,13.00
2017-10-21T07:11:24.597Z,13.00
2017-10-21T07:13:52.951Z,13.10
2017-10-21T07:16:20.524Z,13.00
2017-10-21T07:18:48.128Z,13.10
2017-10-21T07:21:15.695Z,13.20
2017-10-21T07:23:43.447Z,13.20
2017-10-21T07:26:11.793Z,13.30
2017-10-21T07:28:39.395Z,13.20
2017-10-21T07:31:07.757Z,13.30
2017-10-21T07:33:35.356Z,13.30
2017-10-21T07:36:02.923Z,13.30
2017-10-21T07:38:30.537Z,13.30
2017-10-21T07:40:58.140Z,13.50
2017-10-21T07:43:25.735Z,13.40
2017-10-21T07:45:53.344Z,13.50
2017-10-21T07:48:21.776Z,13.50
2017-10-21T07:50:49.410Z,13.50
2017-10-21T07:53:17.742Z,13.60
2017-10-21T07:55:45.389Z,13.50
2017-10-21T07:58:13.881Z,13.60
2017-10-21T08:00:41.571Z,13.60
2017-10-21T08:03:09.161Z,13.60
2017-10-21T08:05:37.506Z,13.60
2017-10-21T08:08:05.259Z,13.60
2017-10-21T08:10:32.856Z,13.50
2017-10-21T08:13:00.471Z,13.50
2017-10-21T08:15:28.062Z,13.40
2017-10-21T08:17:55.636Z,13.40
2017-10-21T08:20:23.217Z,13.40
2017-10-21T08:22:50.802Z,13.40
2017-10-21T08:25:19.170Z,13.40
2017-10-21T08:27:46.728Z,13.40
2017-10-21T08:30:14.297Z,13.30
2017-10-21T08:32:42.021Z,13.20
2017-10-21T08:35:09.645Z,13.10
2017-10-21T08:37:38.012Z,13.20
2017-10-21T08:40:06.358Z,13.20
2017-10-21T08:42:33.978Z,13.10
2017-10-21T08:45:02.380Z,13.10
2017-10-21T08:47:29.978Z,13.00
2017-10-21T08:49:57.589Z,13.10
2017-10-21T08:52:25.924Z,13.10
2017-10-21T08:54:53.527Z,13.00
2017-10-21T08:57:21.953Z,13.10
2017-10-21T08:59:49.583Z,13.10
2017-10-21T09:02:17.920Z,13.10
2017-10-21T09:04:45.534Z,13.10
2017-10-21T09:07:13.857Z,13.10
2017-10-21T09:09:41.421Z,13.10
2017-10-21T09:12:09.073Z,13.10
2017-10-21T09:14:36.628Z,13.20
2017-10-21T09:17:04.240Z,13.30
2017-10-21T09:19:31.811Z,13.30
2017-10-21T09:21:59.465Z,13.40
2017-10-21T09:24:28.539Z,13.30
2017-10-21T09:26:56.153Z,13.30
2017-10-21T09:29:24.490Z,13.50
2017-10-21T09:31:52.097Z,13.50
2017-10-21T09:34:20.451Z,13.60
2017-10-21T09:36:48.040Z,13.50
2017-10-21T09:39:16.486Z,13.60
2017-10-21T09:41:44.691Z,13.70
2017-10-21T09:44:13.070Z,13.70
2017-10-21T09:46:40.644Z,13.70
2017-10-21T09:49:08.256Z,13.80
2017-10-21T09:51:35.892Z,13.80
2017-10-21T09:54:04.228Z,13.70
2017-10-21T09:56:31.821Z,13.70
2017-10-21T09:58:59.413Z,13.80
2017-10-21T10:01:27.104Z,13.80
2017-10-21T10:03:55.851Z,13.90
2017-10-21T10:06:24.206Z,13.90
2017-10-21T10:08:51.781Z,13.90
2017-10-21T10:11:20.899Z,13.90
2017-10-21T10:13:49.249Z,14.00
2017-10-21T10:16:16.854Z,14.00
2017-10-21T10:18:45.204Z,14.00
2017-10-21T10:21:12.799Z,14.00
2017-10-21T10:23:41.135Z,14.10
2017-10-21T10:26:08.739Z,14.10
2017-10-21T10:28:37.075Z,14.20
2017-10-21T10:31:04.705Z,14.20
2017-10-21T10:33:32.289Z,14.20
2017-10-21T10:36:05.727Z,14.20
2017-10-21T10:38:33.341Z,14.30
2017-10-21T10:41:00.904Z,14.40
2017-10-21T10:43:28.488Z,14.40
2017-10-21T10:45:56.067Z,14.40
2017-10-21T10:48:23.703Z,14.50
2017-10-21T10:50:51.315Z,14.60
2017-10-21T10:53:18.890Z,14.60
2017-10-21T10:55:47.243Z,14.70
2017-10-21T10:58:14.877Z,14.70
2017-10-21T11:00:42.484Z,14.80
2017-10-21T11:03:10.042Z,14.90
2017-10-21T11:05:37.603Z,15.00
2017-10-21T11:08:05.211Z,15.20
2017-10-21T11:10:32.783Z,15.40
2017-10-21T11:13:00.379Z,15.50
2017-10-21T11:15:27.947Z,15.60
2017-10-21T11:17:55.611Z,15.70
2017-10-21T11:20:23.183Z,15.70
2017-10-21T11:22:50.794Z,15.70
2017-10-21T11:25:19.117Z,15.70
2017-10-21T11:27:46.801Z,15.70
2017-10-21T11:30:14.378Z,15.70
2017-10-21T11:32:41.933Z,15.70
2017-10-21T11:35:09.536Z,15.80
2017-10-21T11:37:37.088Z,15.70
2017-10-21T11:40:05.472Z,15.80
2017-10-21T11:42:33.898Z,15.90
2017-10-21T11:45:01.543Z,15.90
2017-10-21T11:47:29.101Z,16.00
2017-10-21T11:49:56.697Z,16.10
2017-10-21T11:52:24.253Z,16.30
2017-10-21T11:54:51.859Z,16.40
2017-10-21T11:57:19.432Z,16.40
2017-10-21T11:59:46.993Z,16.50
2017-10-21T12:02:14.601Z,16.50
2017-10-21T12:04:42.161Z,16.50
2017-10-21T12:07:09.755Z,16.50
2017-10-21T12:09:37.323Z,16.50
2017-10-21T12:12:05.374Z,16.60
2017-10-21T12:14:32.947Z,16.70
2017-10-21T12:17:00.556Z,16.80
2017-10-21T12:19:29.412Z,16.90
2017-10-21T12:21:57.031Z,16.90
2017-10-21T12:24:25.386Z,17.00
2017-10-21T12:26:52.941Z,17.00
2017-10-21T12:29:20.536Z,17.10
2017-10-21T12:31:49.469Z,17.90
2017-10-21T12:34:17.062Z,17.90
2017-10-21T12:36:44.616Z,18.60
2017-10-21T12:39:12.187Z,19.00
2017-10-21T12:41:39.789Z,19.10
2017-10-21T12:44:08.168Z,18.90
2017-10-21T12:46:36.526Z,18.80
2017-10-21T12:49:04.100Z,18.90
2017-10-21T12:51:32.465Z,18.60
2017-10-21T12:54:00.083Z,18.60
2017-10-21T12:56:27.685Z,18.70
2017-10-21T12:58:55.283Z,18.60
2017-10-21T13:01:23.606Z,18.60
2017-10-21T13:03:51.209Z,18.60
2017-10-21T13:06:18.782Z,18.60
2017-10-21T13:08:46.377Z,18.60
2017-10-21T13:11:14.697Z,18.40
2017-10-21T13:13:42.287Z,18.40
2017-10-21T13:16:09.892Z,18.20
2017-10-21T13:18:37.497Z,18.20
2017-10-21T13:21:05.125Z,18.10
2017-10-21T13:23:32.708Z,18.10
2017-10-21T13:26:00.313Z,18.20
2017-10-21T13:28:27.902Z,18.40
2017-10-21T13:30:56.226Z,18.70
2017-10-21T13:33:24.605Z,18.60
2017-10-21T13:35:52.220Z,18.50
2017-10-21T13:38:20.577Z,18.30
2017-10-21T13:40:48.144Z,18.30
2017-10-21T13:43:16.223Z,18.20
2017-10-21T13:45:44.368Z,18.10
2017-10-21T13:48:12.074Z,18.00
2017-10-21T13:50:40.411Z,17.90
2017-10-21T13:53:07.983Z,17.80
2017-10-21T13:55:35.593Z,17.80
2017-10-21T13:58:03.935Z,17.80
2017-10-21T14:00:31.548Z,17.80
2017-10-21T14:02:59.891Z,17.70
2017-10-21T14:05:27.483Z,17.70
2017-10-21T14:07:55.915Z,17.90
2017-10-21T14:10:23.541Z,17.80
2017-10-21T14:12:51.891Z,18.00
2017-10-21T14:15:19.445Z,17.90
2017-10-21T14:17:47.215Z,18.00
2017-10-21T14:20:14.916Z,18.00
2017-10-21T14:22:42.626Z,17.90
2017-10-21T14:25:10.225Z,17.90
2017-10-21T14:27:37.826Z,17.90
2017-10-21T14:30:06.205Z,18.00
2017-10-21T14:32:35.134Z,18.00
2017-10-21T14:35:02.699Z,18.00
2017-10-21T14:37:30.304Z,18.00
2017-10-21T14:39:57.871Z,17.90
2017-10-21T14:42:25.491Z,17.80
2017-10-21T14:44:53.073Z,17.80
2017-10-21T14:47:20.643Z,17.90
2017-10-21T14:49:48.221Z,17.90
2017-10-21T14:52:15.836Z,17.90
2017-10-21T14:54:43.429Z,18.00
2017-10-21T14:57:11.020Z,18.00
2017-10-21T14:59:39.581Z,18.00
2017-10-21T15:02:07.175Z,18.00
2017-10-21T15:04:34.788Z,17.90
2017-10-21T15:07:02.359Z,17.90
2017-10-21T15:09:30.006Z,17.80
2017-10-21T15:11:57.662Z,17.80
2017-10-21T15:14:25.234Z,17.60
2017-10-21T15:16:52.849Z,17.50
2017-10-21T15:19:20.424Z,17.60
2017-10-21T15:46:46.557Z,17.00
2017-10-21T15:49:14.915Z,17.10
2017-10-21T15:51:42.576Z,17.10
2017-10-21T15:54:10.172Z,17.20
2017-10-21T15:56:38.493Z,17.10
2017-10-21T15:59:06.095Z,17.10
2017-10-21T16:01:33.670Z,17.10
2017-10-21T16:04:02.029Z,17.00
2017-10-21T16:06:29.584Z,17.00
2017-10-21T16:08:57.152Z,16.90
2017-10-21T16:11:24.752Z,16.80
2017-10-21T16:13:52.353Z,16.70
2017-10-21T16:16:19.916Z,16.60
2017-10-21T16:18:47.488Z,16.50
2017-10-21T16:21:15.087Z,16.50
2017-10-21T16:23:42.689Z,16.40
2017-10-21T16:26:10.437Z,16.30
2017-10-21T16:28:38.000Z,16.30
2017-10-21T16:31:05.682Z,16.20
2017-10-21T16:33:34.105Z,16.10
2017-10-21T16:36:01.661Z,16.10
2017-10-21T16:38:29.256Z,16.00
2017-10-21T16:40:56.840Z,16.00
2017-10-21T16:43:24.506Z,15.90
2017-10-21T16:45:52.098Z,15.90
2017-10-21T16:48:20.821Z,15.80
2017-10-21T16:50:48.690Z,15.70
2017-10-21T16:53:16.323Z,15.70
2017-10-21T16:55:44.667Z,15.60
2017-10-21T16:58:12.407Z,15.60
2017-10-21T17:00:39.997Z,15.60
2017-10-21T17:03:08.349Z,15.50
2017-10-21T17:05:35.924Z,15.50
2017-10-21T17:08:03.605Z,15.40
2017-10-21T17:10:31.288Z,15.30
2017-10-21T17:12:59.743Z,15.30
2017-10-21T17:15:28.095Z,15.20
2017-10-21T17:17:55.784Z,15.20
2017-10-21T17:20:23.374Z,15.20
2017-10-21T17:22:50.929Z,15.20
2017-10-21T17:25:18.594Z,15.10
2017-10-21T17:27:46.197Z,15.10
2017-10-21T17:30:14.540Z,15.00
2017-10-21T17:32:42.142Z,14.90
2017-10-21T17:35:10.487Z,14.90
2017-10-21T17:37:38.075Z,14.90
2017-10-21T17:40:05.696Z,14.90
2017-10-21T17:42:33.363Z,14.90
2017-10-21T17:45:00.954Z,14.80
2017-10-21T17:47:28.566Z,14.80
2017-10-21T17:49:56.117Z,14.80
2017-10-21T17:52:24.498Z,14.80
2017-10-21T17:54:52.073Z,14.70
2017-10-21T17:57:20.588Z,14.70
2017-10-21T17:59:48.185Z,14.70
2017-10-21T18:02:15.790Z,14.70
2017-10-21T18:04:43.379Z,14.70
2017-10-21T18:07:11.147Z,14.70
2017-10-21T18:09:38.815Z,14.70
2017-10-21T18:12:06.383Z,14.70
2017-10-21T18:14:34.043Z,14.60
2017-10-21T18:17:01.628Z,14.60
2017-10-21T18:19:29.239Z,14.60
2017-10-21T18:21:57.592Z,14.50
2017-10-21T18:24:25.173Z,14.50
2017-10-21T18:26:53.545Z,14.40
2017-10-21T18:29:21.139Z,14.40
2017-10-21T18:31:48.740Z,14.40
2017-10-21T18:34:16.770Z,14.40
2017-10-21T18:36:44.827Z,14.50
2017-10-21T18:39:13.218Z,14.40
2017-10-21T18:41:41.639Z,14.30
2017-10-21T18:44:09.219Z,14.30
2017-10-21T18:46:37.078Z,14.30
2017-10-21T18:49:04.678Z,14.30
2017-10-21T18:51:32.319Z,14.30
2017-10-21T18:53:59.918Z,14.20
2017-10-21T18:56:28.376Z,14.20
2017-10-21T18:58:55.952Z,14.20
2017-10-21T19:01:23.797Z,14.20
2017-10-21T19:03:51.434Z,14.30
2017-10-21T19:06:19.004Z,14.30
2017-10-21T19:08:46.560Z,14.40
2017-10-21T19:11:14.166Z,14.40
2017-10-21T19:13:41.748Z,14.40
2017-10-21T19:16:09.583Z,14.40
2017-10-21T19:18:37.181Z,14.40
2017-10-21T19:21:04.945Z,14.30
2017-10-21T19:23:32.508Z,14.30
2017-10-21T19:26:00.375Z,14.30
2017-10-21T19:28:27.950Z,14.30
2017-10-21T19:30:55.790Z,14.20
2017-10-21T19:33:23.398Z,14.20
2017-10-21T19:35:50.981Z,14.10
2017-10-21T19:38:19.522Z,14.10
2017-10-21T19:40:47.081Z,14.10
2017-10-21T19:43:14.732Z,14.10
2017-10-21T19:45:42.323Z,14.10
2017-10-21T19:48:10.201Z,14.00
2017-10-21T19:50:37.776Z,13.90
2017-10-21T19:53:06.228Z,14.00
2017-10-21T19:55:33.853Z,13.90
2017-10-21T19:58:01.664Z,14.00
2017-10-21T20:00:30.130Z,13.90
2017-10-21T20:02:57.762Z,13.90
2017-10-21T20:05:25.367Z,13.90
2017-10-21T20:07:53.264Z,13.80
2017-10-21T20:10:21.644Z,13.80
2017-10-21T20:12:49.233Z,13.80
2017-10-21T20:15:17.792Z,13.80
2017-10-21T20:17:45.407Z,13.80
2017-10-21T20:20:13.099Z,13.80
2017-10-21T20:22:40.715Z,13.70
2017-10-21T20:25:09.149Z,13.70
2017-10-21T20:27:36.775Z,13.60
2017-10-21T20:30:05.119Z,13.60
2017-10-21T20:32:32.964Z,13.60
2017-10-21T20:35:00.735Z,13.60
2017-10-21T20:37:28.402Z,13.60
2017-10-21T20:39:55.972Z,13.60
2017-10-21T20:42:23.635Z,13.60
2017-10-21T20:44:51.227Z,13.70
2017-10-21T20:47:18.821Z,13.70
2017-10-21T20:49:47.159Z,13.70
2017-10-21T20:52:14.741Z,13.70
2017-10-21T20:54:42.342Z,13.70
2017-10-21T20:57:09.935Z,13.70
2017-10-21T20:59:37.596Z,13.70
2017-10-21T21:02:05.211Z,13.70
2017-10-21T21:04:33.561Z,13.60
2017-10-21T21:07:01.153Z,13.60
2017-10-21T21:09:29.590Z,13.60
2017-10-21T21:11:57.191Z,13.50
2017-10-21T21:14:24.755Z,13.50
2017-10-21T21:16:52.323Z,13.50
2017-10-21T21:19:21.443Z,13.60
2017-10-21T21:21:49.801Z,13.60
2017-10-21T21:24:17.381Z,13.60
2017-10-21T21:26:45.001Z,13.50
2017-10-21T21:29:12.600Z,13.60
2017-10-21T21:31:40.947Z,13.60
2017-10-21T21:34:08.498Z,13.60
2017-10-21T21:36:36.087Z,13.60
2017-10-21T21:39:03.649Z,13.60
2017-10-21T21:41:31.253Z,13.70
2017-10-21T21:43:59.679Z,13.70
2017-10-21T21:46:27.285Z,13.70
2017-10-21T21:48:54.844Z,13.70
2017-10-21T21:51:22.427Z,13.70
2017-10-21T21:53:50.791Z,13.70
2017-10-21T21:56:19.123Z,13.80
2017-10-21T21:58:46.723Z,13.80
2017-10-21T22:01:14.291Z,13.80
2017-10-21T22:03:41.896Z,13.80
2017-10-21T22:06:10.235Z,13.80
2017-10-21T22:08:37.850Z,13.70
2017-10-21T22:11:05.483Z,13.70
2017-10-21T22:13:33.065Z,13.80
2017-10-21T22:16:00.699Z,13.80
2017-10-21T22:18:28.267Z,13.80
2017-10-21T22:20:55.873Z,13.80
2017-10-21T22:23:23.481Z,13.80
2017-10-21T22:25:51.079Z,13.70
2017-10-21T22:28:19.427Z,13.70
2017-10-21T22:30:46.994Z,13.70
2017-10-21T22:33:14.637Z,13.60
2017-10-21T22:35:42.207Z,13.60
2017-10-21T22:38:09.795Z,13.60
2017-10-21T22:40:37.375Z,13.50
2017-10-21T22:43:04.997Z,13.50
2017-10-21T22:45:32.549Z,13.50
2017-10-21T22:48:00.226Z,13.50
2017-10-21T22:50:27.865Z,13.50
2017-10-21T22:52:55.554Z,13.50
2017-10-21T22:55:23.175Z,13.50
2017-10-21T22:57:51.526Z,13.40
2017-10-21T23:00:19.175Z,13.40
2017-10-21T23:02:46.749Z,13.30
2017-10-21T23:05:14.365Z,13.40
2017-10-21T23:07:41.971Z,13.40
2017-10-21T23:10:09.539Z,13.40
2017-10-21T23:12:37.163Z,13.30
2017-10-21T23:15:05.581Z,13.20
2017-10-21T23:17:33.183Z,13.20
2017-10-21T23:20:00.751Z,13.20
2017-10-21T23:22:29.096Z,13.10
2017-10-21T23:24:56.729Z,13.10
2017-10-21T23:27:24.309Z,13.10
2017-10-21T23:29:51.903Z,13.10
2017-10-21T23:32:19.492Z,13.10
2017-10-21T23:34:47.890Z,13.10
2017-10-21T23:37:16.361Z,13.10
2017-10-21T23:39:43.916Z,13.10
2017-10-21T23:42:12.273Z,13.00
2017-10-21T23:44:39.844Z,13.00
2017-10-21T23:47:07.427Z,13.00
2017-10-21T23:49:35.001Z,13.00
2017-10-21T23:52:02.564Z,13.00
2017-10-21T23:54:30.159Z,13.00
2017-10-21T23:56:57.732Z,13.00
2017-10-21T23:59:25.309Z,13.00
